Time;durP1;ratioP1;P1;durP2;ratioP2;P2;SDS_P1;SDS_P2;PMS_P1;PMS_P2;Temp;Humidity;BMP_temperature;BMP_pressure;BME280_temperature;BME280_humidity;BME280_pressure;Samples;Min_cycle;Max_cycle;Signal;HPM_P1;HPM_P2
2021/01/17 00:00:13;;;;;;;;;;;1.30;95.70;;;;;;5048706;28;19920;-85
2021/01/17 00:02:39;;;;;;;;;;;1.30;95.70;;;;;;5032397;28;19916;-84
2021/01/17 00:05:07;;;;;;;;;;;1.30;95.70;;;;;;5044530;28;20020;-85
2021/01/17 00:07:32;;;;;;;;;;;1.40;95.70;;;;;;5028244;28;19913;-84
2021/01/17 00:09:58;;;;;;;;;;;1.30;95.70;;;;;;5031751;28;19939;-84
2021/01/17 00:12:23;;;;;;;;;;;1.30;95.60;;;;;;5027689;28;19910;-83
2021/01/17 00:14:49;;;;;;;;;;;1.30;95.70;;;;;;5013214;28;19924;-83
2021/01/17 00:17:14;;;;;;;;;;;1.30;95.70;;;;;;5034568;28;19924;-83
2021/01/17 00:19:40;;;;;;;;;;;1.30;95.80;;;;;;5048442;28;19962;-83
2021/01/17 00:22:05;;;;;;;;;;;1.20;95.80;;;;;;5018484;28;20017;-82
2021/01/17 00:24:31;;;;;;;;;;;1.20;95.90;;;;;;5027541;28;20520;-83
2021/01/17 00:26:56;;;;;;;;;;;1.30;95.80;;;;;;5033968;28;19913;-85
2021/01/17 00:29:22;;;;;;;;;;;1.30;95.90;;;;;;5017362;28;19955;-83
2021/01/17 00:31:50;;;;;;;;;;;1.30;95.90;;;;;;5026693;28;19921;-83
2021/01/17 00:34:16;;;;;;;;;;;1.30;95.90;;;;;;5023701;28;19947;-83
2021/01/17 00:36:42;;;;;;;;;;;1.20;95.90;;;;;;5046576;28;20022;-83
2021/01/17 00:39:07;;;;;;;;;;;1.20;95.90;;;;;;5015254;28;20056;-83
2021/01/17 00:41:33;;;;;;;;;;;1.30;96.00;;;;;;5046753;28;19914;-83
2021/01/17 00:43:59;;;;;;;;;;;1.20;96.10;;;;;;5042023;28;20302;-83
2021/01/17 00:46:24;;;;;;;;;;;1.20;96.10;;;;;;5020661;28;20002;-84
2021/01/17 00:48:50;;;;;;;;;;;1.20;96.10;;;;;;5052532;28;19919;-84
2021/01/17 00:51:16;;;;;;;;;;;1.20;96.10;;;;;;5031217;28;19917;-88
2021/01/17 00:53:41;;;;;;;;;;;1.20;96.10;;;;;;5034685;28;20317;-84
2021/01/17 00:56:07;;;;;;;;;;;1.20;96.20;;;;;;5052731;28;20325;-83
2021/01/17 00:58:32;;;;;;;;;;;1.20;96.30;;;;;;5031171;28;19925;-84
2021/01/17 01:00:58;;;;;;;;;;;1.20;96.30;;;;;;5034820;28;19923;-84
2021/01/17 01:03:23;;;;;;;;;;;1.20;96.40;;;;;;5051360;28;19909;-84
2021/01/17 01:05:49;;;;;;;;;;;1.10;96.40;;;;;;5001567;28;19929;-84
2021/01/17 01:08:15;;;;;;;;;;;1.20;96.30;;;;;;5034463;28;19920;-84
2021/01/17 01:10:41;;;;;;;;;;;1.20;96.30;;;;;;5034416;28;19917;-84
2021/01/17 01:13:06;;;;;;;;;;;1.20;96.30;;;;;;5052515;28;20374;-84
2021/01/17 01:15:32;;;;;;;;;;;1.20;96.20;;;;;;5034397;28;20271;-85
2021/01/17 01:17:58;;;;;;;;;;;1.20;96.20;;;;;;5034680;28;19959;-85
2021/01/17 01:20:24;;;;;;;;;;;1.30;96.20;;;;;;5031041;28;20127;-84
2021/01/17 01:22:49;;;;;;;;;;;1.30;96.20;;;;;;5011509;28;20035;-84
2021/01/17 01:25:15;;;;;;;;;;;1.30;96.20;;;;;;5034233;28;20393;-83
2021/01/17 01:27:44;;;;;;;;;;;1.30;96.20;;;;;;5034213;28;20310;-83
2021/01/17 01:30:10;;;;;;;;;;;1.20;96.20;;;;;;5034626;28;20394;-84
2021/01/17 01:32:36;;;;;;;;;;;1.20;96.20;;;;;;5033836;28;19959;-84
2021/01/17 01:35:01;;;;;;;;;;;1.30;96.20;;;;;;5017499;28;19913;-83
2021/01/17 01:37:27;;;;;;;;;;;1.30;96.20;;;;;;5052144;28;19913;-84
2021/01/17 01:39:52;;;;;;;;;;;1.30;96.20;;;;;;5028739;28;19920;-84
2021/01/17 01:42:18;;;;;;;;;;;1.30;96.10;;;;;;5011360;28;19979;-84
2021/01/17 01:44:44;;;;;;;;;;;1.30;96.00;;;;;;5029784;28;19975;-84
2021/01/17 01:47:14;;;;;;;;;;;1.40;96.00;;;;;;5037225;28;19920;-84
2021/01/17 01:49:41;;;;;;;;;;;1.40;96.00;;;;;;5023478;28;19917;-85
2021/01/17 01:52:06;;;;;;;;;;;1.40;96.00;;;;;;5035613;28;19916;-86
2021/01/17 01:54:32;;;;;;;;;;;1.40;96.00;;;;;;5030021;28;19909;-86
2021/01/17 01:56:58;;;;;;;;;;;1.40;95.90;;;;;;5031625;28;19913;-85
2021/01/17 01:59:23;;;;;;;;;;;1.40;96.00;;;;;;5036994;28;20382;-85
2021/01/17 02:01:49;;;;;;;;;;;1.40;96.00;;;;;;5046134;28;19932;-84
2021/01/17 02:04:14;;;;;;;;;;;1.30;96.10;;;;;;5055001;28;19920;-84
2021/01/17 02:06:48;;;;;;;;;;;1.30;96.10;;;;;;5027730;28;20355;-84
2021/01/17 02:09:18;;;;;;;;;;;1.30;96.20;;;;;;5051957;28;20004;-84
2021/01/17 02:11:51;;;;;;;;;;;1.30;96.20;;;;;;5037504;28;20487;-84
2021/01/17 02:14:16;;;;;;;;;;;1.30;96.30;;;;;;5037613;28;19999;-84
2021/01/17 02:16:43;;;;;;;;;;;1.30;96.30;;;;;;5037639;28;20350;-85
2021/01/17 02:19:09;;;;;;;;;;;1.30;96.30;;;;;;5036996;28;19955;-85
2021/01/17 02:21:40;;;;;;;;;;;1.30;96.40;;;;;;5037080;28;20021;-84
2021/01/17 02:24:10;;;;;;;;;;;1.30;96.50;;;;;;5055209;28;20344;-84
2021/01/17 02:26:39;;;;;;;;;;;1.30;96.50;;;;;;5018452;28;19994;-84
2021/01/17 02:29:07;;;;;;;;;;;1.40;96.60;;;;;;5035060;28;19935;-84
2021/01/17 02:31:34;;;;;;;;;;;1.40;96.60;;;;;;5033263;28;19913;-85
2021/01/17 02:34:00;;;;;;;;;;;1.40;96.60;;;;;;5045495;28;19932;-84
2021/01/17 02:36:40;;;;;;;;;;;1.50;96.60;;;;;;5040951;28;19909;-87
2021/01/17 02:39:06;;;;;;;;;;;1.40;96.50;;;;;;5054808;28;19909;-84
2021/01/17 02:41:37;;;;;;;;;;;1.40;96.50;;;;;;5034792;28;20377;-85
2021/01/17 02:44:04;;;;;;;;;;;1.50;96.50;;;;;;5043190;28;20393;-84
2021/01/17 02:46:30;;;;;;;;;;;1.50;96.50;;;;;;5033075;28;20273;-85
2021/01/17 02:48:55;;;;;;;;;;;1.40;96.50;;;;;;5052173;28;19913;-84
2021/01/17 02:51:21;;;;;;;;;;;1.40;96.60;;;;;;5033754;28;19913;-84
2021/01/17 02:53:58;;;;;;;;;;;1.40;96.70;;;;;;5016766;28;20415;-84
2021/01/17 02:56:24;;;;;;;;;;;1.40;96.70;;;;;;5047939;28;20368;-84
2021/01/17 02:58:51;;;;;;;;;;;1.40;96.70;;;;;;5032883;28;20019;-84
2021/01/17 03:01:21;;;;;;;;;;;1.40;96.90;;;;;;5027541;28;19917;-84
2021/01/17 03:03:47;;;;;;;;;;;1.30;97.00;;;;;;5019394;28;19972;-84
2021/01/17 03:06:13;;;;;;;;;;;1.30;97.00;;;;;;5016800;28;20307;-84
2021/01/17 03:08:39;;;;;;;;;;;1.30;97.10;;;;;;5016361;28;19918;-84
2021/01/17 03:11:05;;;;;;;;;;;1.30;97.10;;;;;;5003246;28;19951;-85
2021/01/17 03:13:31;;;;;;;;;;;1.30;97.10;;;;;;5025458;28;19910;-86
2021/01/17 03:15:57;;;;;;;;;;;1.40;97.10;;;;;;5032057;28;20264;-84
2021/01/17 03:18:23;;;;;;;;;;;1.40;97.00;;;;;;5027006;28;19916;-84
2021/01/17 03:20:48;;;;;;;;;;;1.40;97.00;;;;;;5023319;28;20447;-84
2021/01/17 03:23:14;;;;;;;;;;;1.40;97.00;;;;;;5016267;28;19967;-84
2021/01/17 03:25:39;;;;;;;;;;;1.40;97.00;;;;;;5001941;28;19964;-85
2021/01/17 03:28:05;;;;;;;;;;;1.50;97.00;;;;;;5002854;28;19917;-84
2021/01/17 03:30:30;;;;;;;;;;;1.50;96.90;;;;;;5033831;28;19913;-86
2021/01/17 03:32:56;;;;;;;;;;;1.50;96.90;;;;;;4997097;28;19921;-85
2021/01/17 03:35:21;;;;;;;;;;;1.50;96.90;;;;;;5014334;28;20435;-84
2021/01/17 03:37:47;;;;;;;;;;;1.50;96.90;;;;;;5011055;28;19924;-85
2021/01/17 03:40:12;;;;;;;;;;;1.50;96.90;;;;;;5012975;28;19914;-84
2021/01/17 03:42:39;;;;;;;;;;;1.50;97.00;;;;;;5020406;28;19917;-87
2021/01/17 03:45:05;;;;;;;;;;;1.50;97.00;;;;;;4999714;28;19913;-85
2021/01/17 03:47:31;;;;;;;;;;;1.50;96.90;;;;;;4998691;28;19932;-85
2021/01/17 03:49:56;;;;;;;;;;;1.50;97.00;;;;;;5032300;28;19936;-85
2021/01/17 03:52:22;;;;;;;;;;;1.50;97.00;;;;;;5010102;28;20282;-85
2021/01/17 03:54:47;;;;;;;;;;;1.60;96.90;;;;;;5033597;28;19971;-85
2021/01/17 03:57:13;;;;;;;;;;;1.60;96.90;;;;;;5033681;28;19920;-86
2021/01/17 03:59:38;;;;;;;;;;;1.50;96.90;;;;;;4999224;28;19913;-86
2021/01/17 04:02:04;;;;;;;;;;;1.60;96.90;;;;;;5014654;28;19914;-85
2021/01/17 04:04:30;;;;;;;;;;;1.60;96.90;;;;;;5030871;28;19963;-85
2021/01/17 04:06:55;;;;;;;;;;;1.50;96.90;;;;;;5014911;28;19967;-86
2021/01/17 04:09:20;;;;;;;;;;;1.60;96.90;;;;;;5015635;28;19914;-86
2021/01/17 04:11:48;;;;;;;;;;;1.60;96.90;;;;;;4998723;28;20363;-86
2021/01/17 04:14:13;;;;;;;;;;;1.60;96.80;;;;;;5012067;28;19920;-86
2021/01/17 04:16:39;;;;;;;;;;;1.60;96.90;;;;;;5015533;28;20317;-86
2021/01/17 04:19:04;;;;;;;;;;;1.60;96.80;;;;;;5013079;28;19939;-86
2021/01/17 04:21:30;;;;;;;;;;;1.70;96.80;;;;;;5012247;28;19913;-87
2021/01/17 04:23:55;;;;;;;;;;;1.70;96.70;;;;;;4998436;28;19944;-88
2021/01/17 04:26:21;;;;;;;;;;;1.70;96.80;;;;;;5015789;28;19913;-87
2021/01/17 04:28:46;;;;;;;;;;;1.70;96.70;;;;;;4999186;28;19964;-87
2021/01/17 04:31:12;;;;;;;;;;;1.70;96.70;;;;;;5015388;28;19917;-87
2021/01/17 04:33:37;;;;;;;;;;;1.70;96.70;;;;;;4999609;28;19940;-90
2021/01/17 04:36:03;;;;;;;;;;;1.70;96.70;;;;;;5033124;28;19920;-88
2021/01/17 04:38:32;;;;;;;;;;;1.80;96.60;;;;;;5015801;28;19948;-87
2021/01/17 04:41:04;;;;;;;;;;;1.80;96.70;;;;;;5015511;28;19909;-88
2021/01/17 04:43:32;;;;;;;;;;;1.80;96.60;;;;;;5015670;28;20385;-87
2021/01/17 04:46:01;;;;;;;;;;;1.70;96.60;;;;;;5015399;28;19909;-87
2021/01/17 04:48:28;;;;;;;;;;;1.80;96.60;;;;;;5015271;28;19917;-86
2021/01/17 04:50:59;;;;;;;;;;;1.80;96.50;;;;;;5015274;28;19914;-86
2021/01/17 04:53:26;;;;;;;;;;;1.80;96.60;;;;;;5014937;28;19962;-86
2021/01/17 04:55:52;;;;;;;;;;;1.80;96.60;;;;;;5015158;28;19909;-86
2021/01/17 04:58:19;;;;;;;;;;;1.80;96.60;;;;;;4998707;28;19924;-88
2021/01/17 05:00:54;;;;;;;;;;;1.80;96.60;;;;;;5014744;28;19913;-86
2021/01/17 05:03:19;;;;;;;;;;;1.80;96.60;;;;;;5015608;28;19916;-86
2021/01/17 05:06:05;;;;;;;;;;;1.80;96.60;;;;;;5048311;28;19921;-87
2021/01/17 05:08:31;;;;;;;;;;;1.80;96.50;;;;;;5051507;28;19958;-85
2021/01/17 05:11:07;;;;;;;;;;;1.90;96.60;;;;;;5040736;28;19913;-86
2021/01/17 05:13:38;;;;;;;;;;;1.80;96.50;;;;;;5012470;28;20267;-86
2021/01/17 05:16:05;;;;;;;;;;;1.90;96.50;;;;;;5034824;28;19916;-85
2021/01/17 05:18:30;;;;;;;;;;;1.90;96.50;;;;;;5052822;28;19940;-85
2021/01/17 05:20:57;;;;;;;;;;;1.90;96.50;;;;;;5027485;28;20002;-86
2021/01/17 05:23:24;;;;;;;;;;;1.90;96.50;;;;;;5035271;28;19909;-86
2021/01/17 05:25:50;;;;;;;;;;;1.90;96.50;;;;;;5022449;28;19920;-85
2021/01/17 05:28:16;;;;;;;;;;;1.90;96.50;;;;;;5025823;28;20007;-85
2021/01/17 05:30:47;;;;;;;;;;;1.90;96.40;;;;;;5032538;28;20433;-86
2021/01/17 05:33:15;;;;;;;;;;;1.90;96.50;;;;;;5047984;28;19915;-86
2021/01/17 05:35:41;;;;;;;;;;;1.90;96.50;;;;;;5054967;28;19909;-86
2021/01/17 05:38:06;;;;;;;;;;;1.90;96.50;;;;;;5038231;28;20289;-86
2021/01/17 05:40:32;;;;;;;;;;;1.90;96.50;;;;;;5025812;28;19966;-86
2021/01/17 05:42:58;;;;;;;;;;;1.90;96.60;;;;;;5018447;28;20438;-85
2021/01/17 05:45:24;;;;;;;;;;;1.90;96.60;;;;;;5018096;28;20012;-86
2021/01/17 05:48:00;;;;;;;;;;;1.90;96.60;;;;;;5017880;28;20317;-86
2021/01/17 05:50:26;;;;;;;;;;;1.90;96.60;;;;;;5023098;28;19966;-87
2021/01/17 05:52:52;;;;;;;;;;;1.90;96.70;;;;;;5037770;28;20373;-86
2021/01/17 05:55:18;;;;;;;;;;;1.90;96.70;;;;;;5014378;28;19924;-88
2021/01/17 05:57:44;;;;;;;;;;;1.90;96.70;;;;;;5036150;28;19913;-86
2021/01/17 06:00:09;;;;;;;;;;;1.90;96.70;;;;;;5031646;28;19920;-85
2021/01/17 06:02:35;;;;;;;;;;;2.00;96.80;;;;;;5055600;28;19940;-86
2021/01/17 06:05:02;;;;;;;;;;;2.00;96.80;;;;;;5055241;28;19925;-85
2021/01/17 06:07:29;;;;;;;;;;;2.00;96.80;;;;;;5055459;28;20444;-85
2021/01/17 06:09:59;;;;;;;;;;;2.00;96.80;;;;;;5018671;28;19949;-86
2021/01/17 06:12:32;;;;;;;;;;;2.10;96.90;;;;;;5018247;28;20047;-86
2021/01/17 06:15:16;;;;;;;;;;;2.10;96.90;;;;;;5017454;28;19913;-86
2021/01/17 06:17:46;;;;;;;;;;;2.20;96.90;;;;;;5018166;28;20398;-86
2021/01/17 06:20:18;;;;;;;;;;;2.20;96.90;;;;;;5032133;28;19909;-86
2021/01/17 06:22:46;;;;;;;;;;;2.20;96.80;;;;;;5046998;28;19963;-86
2021/01/17 06:25:12;;;;;;;;;;;2.20;96.90;;;;;;5053924;28;19909;-86
2021/01/17 06:27:38;;;;;;;;;;;2.20;96.80;;;;;;5037868;28;19921;-86
2021/01/17 06:30:16;;;;;;;;;;;2.20;96.60;;;;;;5036360;28;19927;-86
2021/01/17 06:32:44;;;;;;;;;;;2.10;96.70;;;;;;5037875;28;20397;-86
2021/01/17 06:35:11;;;;;;;;;;;2.10;96.80;;;;;;5019685;28;19909;-87
2021/01/17 06:37:36;;;;;;;;;;;2.10;96.80;;;;;;5020366;28;20462;-87
2021/01/17 06:40:02;;;;;;;;;;;2.10;96.80;;;;;;5020354;28;19923;-86
2021/01/17 06:42:28;;;;;;;;;;;2.10;96.80;;;;;;5017576;28;19952;-86
2021/01/17 06:44:53;;;;;;;;;;;2.10;96.70;;;;;;5028612;28;19936;-88
2021/01/17 06:47:26;;;;;;;;;;;2.10;97.00;;;;;;5036273;28;20011;-87
2021/01/17 06:49:52;;;;;;;;;;;2.10;96.80;;;;;;5048931;28;19923;-87
2021/01/17 06:52:18;;;;;;;;;;;2.10;96.90;;;;;;5037346;28;19948;-86
2021/01/17 06:54:48;;;;;;;;;;;2.20;97.00;;;;;;5020607;28;19920;-86
2021/01/17 06:57:14;;;;;;;;;;;2.10;97.00;;;;;;5022803;28;20279;-86
2021/01/17 06:59:43;;;;;;;;;;;2.20;97.10;;;;;;5053939;28;19909;-86
2021/01/17 07:02:11;;;;;;;;;;;2.20;97.20;;;;;;5053153;28;20010;-86
2021/01/17 07:04:40;;;;;;;;;;;2.30;97.20;;;;;;5046824;28;19991;-86
2021/01/17 07:07:05;;;;;;;;;;;2.30;97.20;;;;;;5003466;28;19963;-87
2021/01/17 07:09:49;;;;;;;;;;;2.30;97.20;;;;;;5015737;28;19917;-87
2021/01/17 07:12:15;;;;;;;;;;;2.30;97.20;;;;;;5002493;28;19917;-86
2021/01/17 07:14:42;;;;;;;;;;;2.30;97.20;;;;;;5015795;28;19916;-88
2021/01/17 07:17:08;;;;;;;;;;;2.30;97.20;;;;;;5034557;28;20000;-86
2021/01/17 07:19:34;;;;;;;;;;;2.30;97.30;;;;;;4999537;28;20359;-88
2021/01/17 07:22:04;;;;;;;;;;;2.30;97.30;;;;;;5011099;28;20027;-87
2021/01/17 07:24:30;;;;;;;;;;;2.40;97.40;;;;;;5009590;28;19935;-86
2021/01/17 07:27:02;;;;;;;;;;;2.40;97.30;;;;;;5016732;28;19909;-87
2021/01/17 07:29:27;;;;;;;;;;;2.40;97.20;;;;;;5005654;28;19921;-87
2021/01/17 07:31:54;;;;;;;;;;;2.40;97.20;;;;;;4997104;28;20272;-90
2021/01/17 07:34:20;;;;;;;;;;;2.40;97.10;;;;;;5006405;28;19909;-87
2021/01/17 07:36:47;;;;;;;;;;;2.30;96.90;;;;;;5016312;28;20394;-87
2021/01/17 07:39:15;;;;;;;;;;;2.30;97.00;;;;;;5015116;28;19916;-86
2021/01/17 07:41:45;;;;;;;;;;;2.30;97.10;;;;;;5014374;28;20007;-87
2021/01/17 07:44:14;;;;;;;;;;;2.30;97.10;;;;;;5011706;28;20270;-86
2021/01/17 07:46:41;;;;;;;;;;;2.30;97.10;;;;;;5008363;28;20279;-87
2021/01/17 07:49:08;;;;;;;;;;;2.30;97.20;;;;;;5014588;28;20276;-87
2021/01/17 07:51:33;;;;;;;;;;;2.30;97.10;;;;;;5033374;28;20003;-86
2021/01/17 07:53:59;;;;;;;;;;;2.30;97.10;;;;;;5030334;28;20347;-86
2021/01/17 07:56:26;;;;;;;;;;;2.30;97.10;;;;;;5012496;28;19918;-86
2021/01/17 07:58:53;;;;;;;;;;;2.30;97.20;;;;;;5013567;28;19913;-87
2021/01/17 08:01:30;;;;;;;;;;;2.30;97.10;;;;;;4996094;28;19920;-85
2021/01/17 08:04:02;;;;;;;;;;;2.30;97.10;;;;;;4996803;28;20330;-87
2021/01/17 08:06:34;;;;;;;;;;;2.30;97.20;;;;;;5008364;28;19920;-86
2021/01/17 08:09:00;;;;;;;;;;;2.30;97.20;;;;;;4996626;28;19921;-86
2021/01/17 08:11:58;;;;;;;;;;;2.30;97.30;;;;;;5026754;28;19928;-87
2021/01/17 08:14:36;;;;;;;;;;;2.30;97.40;;;;;;4956464;28;20327;-86
2021/01/17 08:17:06;;;;;;;;;;;2.30;97.30;;;;;;5022257;28;19936;-86
2021/01/17 08:19:36;;;;;;;;;;;2.30;97.40;;;;;;5015641;28;19913;-86
2021/01/17 08:22:17;;;;;;;;;;;2.30;97.30;;;;;;4995683;28;19914;-86
2021/01/17 08:24:43;;;;;;;;;;;2.30;97.40;;;;;;4996008;28;20606;-87
2021/01/17 08:27:08;;;;;;;;;;;2.40;97.50;;;;;;5009233;28;19921;-86
2021/01/17 08:29:54;;;;;;;;;;;2.30;97.50;;;;;;5007662;28;19959;-86
2021/01/17 08:32:38;;;;;;;;;;;2.40;97.50;;;;;;4995708;28;20310;-86
2021/01/17 08:35:15;;;;;;;;;;;2.40;97.60;;;;;;5027113;28;19909;-86
2021/01/17 08:37:41;;;;;;;;;;;2.40;97.70;;;;;;4996234;28;19910;-87
2021/01/17 08:40:07;;;;;;;;;;;2.40;97.70;;;;;;4991892;28;19957;-87
2021/01/17 08:42:34;;;;;;;;;;;2.50;97.70;;;;;;5015122;28;19975;-87
2021/01/17 08:45:00;;;;;;;;;;;2.50;97.80;;;;;;5015398;28;19951;-88
2021/01/17 08:47:26;;;;;;;;;;;2.50;97.90;;;;;;5010127;28;19917;-86
2021/01/17 08:49:52;;;;;;;;;;;2.50;97.90;;;;;;4996043;28;19918;-86
2021/01/17 08:52:28;;;;;;;;;;;2.60;97.90;;;;;;5000885;28;20355;-87
2021/01/17 08:54:54;;;;;;;;;;;2.60;97.80;;;;;;5021997;28;19909;-87
2021/01/17 08:57:38;;;;;;;;;;;2.60;97.90;;;;;;5039499;28;19974;-86
2021/01/17 09:00:24;;;;;;;;;;;2.60;97.90;;;;;;5010830;28;19983;-86
2021/01/17 09:03:07;;;;;;;;;;;2.60;98.00;;;;;;5007310;28;19913;-86
2021/01/17 09:05:33;;;;;;;;;;;2.70;98.00;;;;;;5007534;28;19922;-87
2021/01/17 09:08:03;;;;;;;;;;;2.70;98.00;;;;;;5021568;28;19917;-86
2021/01/17 09:10:31;;;;;;;;;;;2.70;98.10;;;;;;5021865;28;19917;-87
2021/01/17 09:12:58;;;;;;;;;;;2.70;98.10;;;;;;5021757;28;19920;-87
2021/01/17 09:15:26;;;;;;;;;;;2.70;98.10;;;;;;5017716;28;19916;-87
2021/01/17 09:17:57;;;;;;;;;;;2.70;98.10;;;;;;5018266;28;20395;-87
2021/01/17 09:20:22;;;;;;;;;;;2.80;98.20;;;;;;5020336;28;19913;-86
2021/01/17 09:22:49;;;;;;;;;;;2.80;98.10;;;;;;5019696;28;20395;-88
2021/01/17 09:25:15;;;;;;;;;;;2.70;98.00;;;;;;5026248;28;19913;-86
2021/01/17 09:27:40;;;;;;;;;;;2.70;97.90;;;;;;5039003;28;20319;-86
2021/01/17 09:30:07;;;;;;;;;;;2.70;98.00;;;;;;5006975;28;19925;-86
2021/01/17 09:32:33;;;;;;;;;;;2.70;98.00;;;;;;5023984;28;20262;-86
2021/01/17 09:35:03;;;;;;;;;;;2.70;98.10;;;;;;5026257;28;19913;-88
2021/01/17 09:37:31;;;;;;;;;;;2.80;98.20;;;;;;5026771;28;19967;-87
2021/01/17 09:39:57;;;;;;;;;;;2.80;98.20;;;;;;5044004;28;20016;-87
2021/01/17 09:42:24;;;;;;;;;;;2.80;98.20;;;;;;5001261;28;19941;-87
2021/01/17 09:44:51;;;;;;;;;;;2.80;98.30;;;;;;5005308;28;19999;-88
2021/01/17 09:47:17;;;;;;;;;;;2.80;98.30;;;;;;5017316;28;19960;-90
2021/01/17 09:49:44;;;;;;;;;;;2.80;98.30;;;;;;5017051;28;20326;-90
2021/01/17 09:52:14;;;;;;;;;;;2.90;98.40;;;;;;5017658;28;19965;-88
2021/01/17 09:54:40;;;;;;;;;;;2.90;98.40;;;;;;5028564;28;19909;-86
2021/01/17 09:57:15;;;;;;;;;;;3.00;98.40;;;;;;5023386;28;19925;-87
2021/01/17 09:59:41;;;;;;;;;;;3.00;98.40;;;;;;5010749;28;19913;-87
2021/01/17 10:02:06;;;;;;;;;;;3.00;98.40;;;;;;5020712;28;19996;-88
2021/01/17 10:04:32;;;;;;;;;;;3.00;98.50;;;;;;4993768;28;19933;-88
2021/01/17 10:06:59;;;;;;;;;;;3.10;98.50;;;;;;4998740;28;20385;-88
2021/01/17 10:09:27;;;;;;;;;;;3.10;98.40;;;;;;4992752;28;19968;-86
2021/01/17 10:12:01;;;;;;;;;;;3.10;98.50;;;;;;5027365;28;20376;-86
2021/01/17 10:14:32;;;;;;;;;;;3.10;98.10;;;;;;5022063;28;19910;-88
2021/01/17 10:16:58;;;;;;;;;;;3.10;98.40;;;;;;5001284;28;19913;-86
2021/01/17 10:19:29;;;;;;;;;;;3.10;98.40;;;;;;5012576;28;19913;-86
2021/01/17 10:21:54;;;;;;;;;;;3.10;98.40;;;;;;5030282;28;20279;-85
2021/01/17 10:24:21;;;;;;;;;;;3.10;98.40;;;;;;5034504;28;20008;-87
2021/01/17 10:26:54;;;;;;;;;;;3.20;98.50;;;;;;5009171;28;20004;-85
2021/01/17 10:29:20;;;;;;;;;;;3.20;98.60;;;;;;5022401;28;19921;-86
2021/01/17 10:31:47;;;;;;;;;;;3.20;98.60;;;;;;5013953;28;19917;-85
2021/01/17 10:34:20;;;;;;;;;;;3.30;98.70;;;;;;5014760;28;19916;-93
2021/01/17 10:36:46;;;;;;;;;;;3.30;98.70;;;;;;5004462;28;19917;-91
2021/01/17 10:39:15;;;;;;;;;;;3.30;98.70;;;;;;4999182;28;19925;-88
2021/01/17 10:41:41;;;;;;;;;;;3.40;98.70;;;;;;5009009;28;19968;-87
2021/01/17 10:47:14;;;;;;;63.30;19.80;;;3.40;98.50;;;;;;5096714;27;833612;-88
2021/01/17 10:49:45;;;;;;;59.53;18.08;;;3.50;98.70;;;;;;5027316;28;20479;-87
2021/01/17 10:52:24;;;;;;;48.13;18.13;;;3.50;98.80;;;;;;5043712;28;20018;-87
2021/01/17 10:54:53;;;;;;;76.75;20.85;;;3.60;98.80;;;;;;5029095;28;20048;-87
2021/01/17 10:57:20;;;;;;;71.20;23.63;;;3.60;98.80;;;;;;5058487;28;20029;-87
2021/01/17 10:59:46;;;;;;;64.85;21.00;;;3.70;98.80;;;;;;5035767;28;20061;-88
2021/01/17 11:02:22;;;;;;;96.95;26.88;;;3.70;98.80;;;;;;5039124;28;20144;-88
2021/01/17 11:04:48;;;;;;;70.85;21.58;;;3.80;98.70;;;;;;5049648;28;20052;-87
2021/01/17 11:07:18;;;;;;;86.00;25.17;;;3.80;98.80;;;;;;5033635;28;20021;-87
2021/01/17 11:09:44;;;;;;;60.72;20.65;;;3.80;98.70;;;;;;5048385;28;20037;-87
2021/01/17 11:12:10;;;;;;;71.78;21.90;;;3.90;98.80;;;;;;5015232;28;20116;-87
2021/01/17 11:14:58;;;;;;;68.00;23.50;;;3.90;98.80;;;;;;5027988;28;20033;-87
2021/01/17 11:17:23;;;;;;;89.07;24.40;;;3.90;98.90;;;;;;5041184;28;20025;-87
2021/01/17 11:19:49;;;;;;;74.72;22.60;;;4.00;98.80;;;;;;5043704;28;20040;-87
2021/01/17 11:22:15;;;;;;;79.85;23.98;;;4.00;98.80;;;;;;5072141;28;20025;-87
2021/01/17 11:24:42;;;;;;;67.88;22.45;;;4.10;98.90;;;;;;5058866;28;20024;-87
2021/01/17 11:27:13;;;;;;;70.32;22.48;;;4.10;98.80;;;;;;5096159;28;20015;-87
2021/01/17 11:29:41;;;;;;;58.45;19.70;;;4.10;98.80;;;;;;5107404;28;20027;-87
2021/01/17 11:32:07;;;;;;;52.97;18.35;;;4.20;98.90;;;;;;5074880;28;20115;-87
2021/01/17 11:37:48;;;;;;;47.97;16.63;;;4.30;99.10;;;;;;5083402;28;20047;-87
2021/01/17 11:40:24;;;;;;;57.58;19.55;;;4.40;99.20;;;;;;5087596;28;20142;-87
2021/01/17 11:42:50;;;;;;;57.25;18.67;;;4.60;99.30;;;;;;5084328;28;20031;-87
2021/01/17 11:45:21;;;;;;;61.47;19.70;;;4.60;99.30;;;;;;5055613;28;20144;-88
2021/01/17 11:47:57;;;;;;;;;;;4.70;99.40;;;;;;5074592;28;20059;-87
2021/01/17 11:50:23;;;;;;;54.30;16.20;;;4.80;99.30;;;;;;5089276;28;19994;-87
2021/01/17 11:53:09;;;;;;;47.53;15.45;;;4.90;99.30;;;;;;5090112;28;20028;-87
2021/01/17 11:55:34;;;;;;;56.22;17.85;;;5.00;99.30;;;;;;5073790;28;20035;-88
2021/01/17 11:58:12;;;;;;;42.15;14.90;;;5.10;99.30;;;;;;5059444;28;20028;-87
2021/01/17 12:00:48;;;;;;;45.28;13.48;;;5.20;99.30;;;;;;5071562;28;20038;-87
2021/01/17 12:03:28;;;;;;;44.83;13.82;;;5.20;99.20;;;;;;5069928;28;20068;-88
2021/01/17 12:06:12;;;;;;;48.97;14.02;;;5.30;99.20;;;;;;5053228;28;20038;-88
2021/01/17 12:08:57;;;;;;;38.47;13.02;;;5.30;99.50;;;;;;5069296;28;20024;-88
2021/01/17 12:11:42;;;;;;;32.88;12.18;;;5.40;99.10;;;;;;5074254;28;20078;-88
2021/01/17 12:14:27;;;;;;;33.92;11.35;;;5.40;99.10;;;;;;5056704;28;20056;-87
2021/01/17 12:17:06;;;;;;;32.20;10.82;;;5.40;99.10;;;;;;5075901;28;20028;-88
2021/01/17 12:19:41;;;;;;;33.20;11.23;;;5.50;99.10;;;;;;5046439;28;20052;-87
2021/01/17 12:22:07;;;;;;;35.30;11.38;;;5.50;99.00;;;;;;5055111;28;20078;-88
2021/01/17 12:24:38;;;;;;;33.17;11.27;;;5.50;99.10;;;;;;5043815;28;20055;-88
2021/01/17 12:27:04;;;;;;;26.70;10.65;;;5.50;99.10;;;;;;5044923;28;20024;-88
2021/01/17 12:29:36;;;;;;;30.75;11.30;;;5.60;99.10;;;;;;5076002;28;20491;-88
2021/01/17 12:32:30;;;;;;;37.20;11.15;;;5.60;99.20;;;;;;5060291;28;20378;-88
2021/01/17 12:34:55;;;;;;;40.70;12.90;;;5.70;99.20;;;;;;5054815;28;20032;-88
2021/01/17 12:37:21;;;;;;;25.98;10.40;;;5.80;99.30;;;;;;5057056;28;20039;-88
2021/01/17 12:39:53;;;;;;;26.15;9.43;;;5.90;99.40;;;;;;5077507;28;20050;-88
2021/01/17 12:42:18;;;;;;;36.72;10.57;;;6.00;99.40;;;;;;5076766;28;20538;-89
2021/01/17 12:44:47;;;;;;;32.63;11.27;;;6.00;99.40;;;;;;5057886;28;20040;-91
2021/01/17 12:47:16;;;;;;;29.55;9.18;;;6.20;99.40;;;;;;5035414;28;20468;-88
2021/01/17 12:49:44;;;;;;;33.75;9.57;;;6.20;99.30;;;;;;5051989;28;20040;-88
2021/01/17 12:52:10;;;;;;;30.13;8.90;;;6.30;99.40;;;;;;5052043;28;20066;-88
2021/01/17 12:54:36;;;;;;;30.13;9.02;;;6.40;99.40;;;;;;5054549;28;20052;-88
2021/01/17 12:57:05;;;;;;;24.08;7.80;;;6.50;99.30;;;;;;5033161;28;20020;-88
2021/01/17 12:59:45;;;;;;;32.75;8.25;;;6.60;99.40;;;;;;5044534;28;20032;-88
2021/01/17 13:02:40;;;;;;;25.27;7.20;;;6.60;99.40;;;;;;5053500;28;20025;-89
2021/01/17 13:05:09;;;;;;;32.38;8.60;;;6.70;99.30;;;;;;5065058;28;20037;-89
2021/01/17 13:07:35;;;;;;;25.90;7.10;;;6.80;99.20;;;;;;5069444;28;20437;-89
2021/01/17 13:10:00;;;;;;;30.65;7.32;;;6.80;99.30;;;;;;5069677;28;20021;-90
2021/01/17 13:12:35;;;;;;;23.75;6.60;;;6.90;99.10;;;;;;5051367;28;20017;-88
2021/01/17 13:15:33;;;;;;;18.63;5.90;;;7.00;99.10;;;;;;5040253;28;20105;-93
2021/01/17 13:18:08;;;;;;;28.15;6.88;;;7.00;99.20;;;;;;5070246;28;20377;-93
2021/01/17 13:21:16;;;;;;;21.52;6.28;;;7.10;99.10;;;;;;5048971;28;20036;-93
2021/01/17 13:23:52;;;;;;;30.92;5.82;;;7.10;99.10;;;;;;5075161;28;20085;-92
2021/01/17 13:26:26;;;;;;;29.00;7.35;;;7.20;99.10;;;;;;5065858;28;20016;-92
2021/01/17 13:28:58;;;;;;;24.52;6.20;;;7.20;99.10;;;;;;5059885;28;20044;-93
2021/01/17 13:31:33;;;;;;;25.13;6.32;;;7.20;99.00;;;;;;5071165;28;20055;-93
2021/01/17 13:34:02;;;;;;;17.48;6.15;;;7.30;99.10;;;;;;5078213;28;20017;-92
2021/01/17 13:39:56;;;;;;;23.20;4.70;;;7.40;99.00;;;;;;5067488;28;20023;-90
2021/01/17 13:42:26;;;;;;;19.48;6.15;;;7.40;99.00;;;;;;5036890;28;20040;-91
2021/01/17 13:44:59;;;;;;;24.10;5.22;;;7.50;98.90;;;;;;5033141;28;20084;-90
2021/01/17 13:47:31;;;;;;;23.92;5.10;;;7.50;98.80;;;;;;5075916;28;20040;-90
2021/01/17 13:50:00;;;;;;;18.85;4.28;;;7.50;98.80;;;;;;5055632;28;20124;-90
2021/01/17 13:52:27;;;;;;;19.05;4.43;;;7.50;98.80;;;;;;5070749;28;20035;-90
2021/01/17 13:54:55;;;;;;;20.42;4.03;;;7.50;98.80;;;;;;5070032;28;20021;-90
2021/01/17 13:57:27;;;;;;;20.20;4.20;;;7.50;98.80;;;;;;5074346;28;20478;-90
2021/01/17 13:59:53;;;;;;;14.48;3.83;;;7.50;98.70;;;;;;5037731;28;20041;-90
2021/01/17 14:02:20;;;;;;;15.10;4.28;;;7.50;98.70;;;;;;5013531;28;20048;-88
2021/01/17 14:04:55;;;;;;;16.40;4.65;;;7.50;98.70;;;;;;5011652;28;20040;-88
2021/01/17 14:07:23;;;;;;;21.70;4.45;;;7.50;98.70;;;;;;5031824;28;20031;-87
2021/01/17 14:09:49;;;;;;;18.60;4.32;;;7.50;98.50;;;;;;5010356;28;20512;-87
2021/01/17 14:12:15;;;;;;;15.15;4.63;;;7.50;98.60;;;;;;5026479;28;20017;-87
2021/01/17 14:14:48;;;;;;;20.05;5.30;;;7.50;98.70;;;;;;5047444;28;20371;-87
2021/01/17 14:17:27;;;;;;;16.02;3.80;;;7.50;98.60;;;;;;5029116;28;20036;-87
2021/01/17 14:19:59;;;;;;;23.58;4.47;;;7.50;98.60;;;;;;4986266;28;20049;-87